Time;durP1;ratioP1;P1;durP2;ratioP2;P2;SDS_P1;SDS_P2;PMS_P1;PMS_P2;Temp;Humidity;BMP_temperature;BMP_pressure;BME280_temperature;BME280_humidity;BME280_pressure;Samples;Min_cycle;Max_cycle;Signal;HPM_P1;HPM_P2
2021/09/02 00:01:00;;;;;;;;;;;22.00;46.20;;;;;;8363618;28;19917;-47
2021/09/02 00:05:07;;;;;;;;;;;21.90;46.10;;;;;;8342266;28;20330;-47
2021/09/02 00:09:07;;;;;;;;;;;21.90;46.10;;;;;;8364738;28;19927;-47
2021/09/02 00:13:08;;;;;;;;;;;22.00;46.10;;;;;;8363277;28;19924;-49
2021/09/02 00:17:08;;;;;;;;;;;22.00;46.10;;;;;;8363685;28;19917;-47
2021/09/02 00:21:10;;;;;;;;;;;21.90;46.10;;;;;;8363481;28;20427;-48
2021/09/02 00:25:10;;;;;;;;;;;21.90;46.10;;;;;;8362763;28;19967;-48
2021/09/02 00:29:11;;;;;;;;;;;21.90;46.20;;;;;;8364055;28;19959;-49
2021/09/02 00:33:15;;;;;;;;;;;21.90;46.20;;;;;;8363052;28;20007;-48
2021/09/02 00:37:16;;;;;;;;;;;21.90;46.20;;;;;;8362750;28;19971;-48
2021/09/02 00:41:16;;;;;;;;;;;21.90;46.20;;;;;;8362948;28;19924;-48
2021/09/02 00:45:17;;;;;;;;;;;21.90;46.20;;;;;;8363894;28;19917;-48
2021/09/02 00:49:17;;;;;;;;;;;21.90;46.10;;;;;;8362542;28;19921;-48
2021/09/02 00:53:18;;;;;;;;;;;21.80;46.10;;;;;;8362542;28;19971;-48
2021/09/02 00:57:19;;;;;;;;;;;21.80;46.10;;;;;;8362808;28;19917;-48
2021/09/02 01:01:21;;;;;;;;;;;21.80;46.10;;;;;;8365877;28;19920;-48
2021/09/02 01:05:22;;;;;;;;;;;21.80;46.10;;;;;;8369553;28;20278;-48
2021/09/02 01:09:22;;;;;;;;;;;21.80;46.10;;;;;;8369869;28;19921;-50
2021/09/02 01:13:23;;;;;;;;;;;21.80;46.10;;;;;;8368674;28;20363;-48
2021/09/02 01:17:24;;;;;;;;;;;21.80;46.10;;;;;;8368837;28;20696;-48
2021/09/02 01:21:24;;;;;;;;;;;21.80;46.20;;;;;;8369546;28;19913;-49
2021/09/02 01:25:26;;;;;;;;;;;21.80;46.30;;;;;;8368246;28;19921;-49
2021/09/02 01:29:27;;;;;;;;;;;21.80;46.20;;;;;;8369114;28;19917;-48
2021/09/02 01:33:27;;;;;;;;;;;21.70;46.10;;;;;;8368415;28;19925;-48
2021/09/02 01:37:48;;;;;;;;;;;21.80;46.20;;;;;;8368638;28;19919;-48
2021/09/02 01:41:48;;;;;;;;;;;21.70;46.10;;;;;;8367717;28;19955;-48
2021/09/02 01:45:49;;;;;;;;;;;21.70;46.10;;;;;;8367529;28;19923;-49
2021/09/02 01:49:50;;;;;;;;;;;21.70;46.10;;;;;;8368233;28;19924;-47
2021/09/02 01:53:50;;;;;;;;;;;21.70;46.10;;;;;;8367713;28;20468;-48
2021/09/02 01:57:51;;;;;;;;;;;21.70;46.10;;;;;;8368009;28;19966;-49
2021/09/02 02:01:51;;;;;;;;;;;21.70;46.10;;;;;;8367681;28;20369;-48
2021/09/02 02:05:52;;;;;;;;;;;21.70;46.10;;;;;;8367465;28;19924;-49
2021/09/02 02:09:52;;;;;;;;;;;21.70;46.20;;;;;;8367603;28;20377;-48
2021/09/02 02:13:53;;;;;;;;;;;21.70;46.20;;;;;;8366780;28;19952;-48
2021/09/02 02:17:54;;;;;;;;;;;21.60;46.10;;;;;;8367172;28;19917;-49
2021/09/02 02:21:55;;;;;;;;;;;21.60;46.20;;;;;;8366663;28;19917;-47
2021/09/02 02:25:55;;;;;;;;;;;21.60;46.10;;;;;;8367148;28;19920;-49
2021/09/02 02:29:56;;;;;;;;;;;21.60;46.10;;;;;;8366975;28;19996;-50
2021/09/02 02:33:56;;;;;;;;;;;21.60;46.10;;;;;;8366835;28;19925;-50
2021/09/02 02:37:57;;;;;;;;;;;21.60;46.10;;;;;;8366523;28;19917;-47
2021/09/02 02:41:57;;;;;;;;;;;21.60;46.10;;;;;;8366564;28;20420;-48
2021/09/02 02:45:58;;;;;;;;;;;21.50;46.00;;;;;;8365843;28;20399;-48
2021/09/02 02:49:58;;;;;;;;;;;21.60;46.10;;;;;;8367179;28;20381;-48
2021/09/02 02:53:59;;;;;;;;;;;21.60;46.10;;;;;;8366104;28;19925;-48
2021/09/02 02:57:59;;;;;;;;;;;21.60;46.10;;;;;;8365676;28;19916;-48
2021/09/02 03:02:00;;;;;;;;;;;21.60;46.10;;;;;;8365819;28;19917;-47
2021/09/02 03:06:00;;;;;;;;;;;21.50;46.10;;;;;;8366380;28;20437;-48
2021/09/02 03:10:02;;;;;;;;;;;21.50;46.10;;;;;;8365840;28;19966;-48
2021/09/02 03:14:02;;;;;;;;;;;21.50;46.10;;;;;;8365233;28;20019;-48
2021/09/02 03:18:03;;;;;;;;;;;21.50;46.10;;;;;;8365142;28;20306;-49
2021/09/02 03:22:03;;;;;;;;;;;21.50;46.10;;;;;;8364475;28;19927;-48
2021/09/02 03:26:04;;;;;;;;;;;21.50;46.20;;;;;;8365722;28;20350;-47
2021/09/02 03:30:06;;;;;;;;;;;21.50;46.80;;;;;;8364861;28;19921;-48
2021/09/02 03:34:07;;;;;;;;;;;21.40;46.20;;;;;;8364215;28;19925;-47
2021/09/02 03:38:07;;;;;;;;;;;21.40;46.30;;;;;;8364557;28;19970;-48
2021/09/02 03:42:08;;;;;;;;;;;21.40;46.30;;;;;;8365280;28;20293;-48
2021/09/02 03:46:08;;;;;;;;;;;21.40;46.30;;;;;;8363847;28;19948;-50
2021/09/02 03:50:09;;;;;;;;;;;21.40;46.20;;;;;;8364193;28;20336;-48
2021/09/02 03:54:09;;;;;;;;;;;21.40;46.20;;;;;;8363858;28;20325;-48
2021/09/02 03:58:10;;;;;;;;;;;21.40;46.20;;;;;;8364194;28;19923;-48
2021/09/02 04:02:10;;;;;;;;;;;21.40;46.30;;;;;;8363809;28;20247;-48
2021/09/02 04:06:11;;;;;;;;;;;21.40;46.30;;;;;;8363732;28;19923;-49
2021/09/02 04:10:11;;;;;;;;;;;21.40;46.20;;;;;;8363901;28;19987;-48
2021/09/02 04:14:12;;;;;;;;;;;21.40;46.20;;;;;;8363544;28;19933;-48
2021/09/02 04:18:15;;;;;;;;;;;21.40;46.20;;;;;;8363742;28;21142;-48
2021/09/02 04:22:16;;;;;;;;;;;21.40;46.20;;;;;;8362966;28;19921;-49
2021/09/02 04:26:16;;;;;;;;;;;21.40;46.20;;;;;;8363293;28;19921;-48
2021/09/02 04:30:17;;;;;;;;;;;21.40;46.20;;;;;;8363263;28;19923;-48
2021/09/02 04:34:17;;;;;;;;;;;21.40;46.70;;;;;;8363221;28;20008;-47
2021/09/02 04:38:19;;;;;;;;;;;21.40;46.20;;;;;;8362815;28;19917;-48
2021/09/02 04:42:20;;;;;;;;;;;21.40;46.20;;;;;;8363214;28;19917;-48
2021/09/02 04:46:20;;;;;;;;;;;21.40;46.20;;;;;;8362675;28;19917;-48
2021/09/02 04:50:21;;;;;;;;;;;21.40;46.10;;;;;;8363484;28;19923;-51
2021/09/02 04:54:21;;;;;;;;;;;21.40;46.10;;;;;;8363217;28;19932;-53
2021/09/02 04:58:22;;;;;;;;;;;21.40;46.20;;;;;;8362348;28;20274;-48
2021/09/02 05:02:22;;;;;;;;;;;21.40;46.20;;;;;;8362641;28;20289;-48
2021/09/02 05:06:22;;;;;;;;;;;21.30;46.10;;;;;;8362924;28;19917;-48
2021/09/02 05:10:23;;;;;;;;;;;21.30;46.10;;;;;;8362967;28;19921;-48
2021/09/02 05:14:23;;;;;;;;;;;21.30;46.20;;;;;;8362504;28;19925;-48
2021/09/02 05:18:24;;;;;;;;;;;21.30;46.20;;;;;;8361204;28;19939;-48
2021/09/02 05:22:24;;;;;;;;;;;21.30;46.20;;;;;;8361992;28;20282;-48
2021/09/02 05:26:25;;;;;;;;;;;21.30;46.20;;;;;;8363382;28;19917;-47
2021/09/02 05:30:25;;;;;;;;;;;21.30;46.10;;;;;;8362126;28;19951;-48
2021/09/02 05:34:27;;;;;;;;;;;21.30;46.20;;;;;;8362001;28;20364;-48
2021/09/02 05:38:27;;;;;;;;;;;21.30;46.70;;;;;;8362430;28;19987;-48
2021/09/02 05:42:27;;;;;;;;;;;21.30;46.20;;;;;;8362079;28;19921;-48
2021/09/02 05:46:28;;;;;;;;;;;21.30;46.20;;;;;;8363566;28;20042;-48
2021/09/02 05:50:28;;;;;;;;;;;21.30;46.20;;;;;;8368189;28;19923;-47
2021/09/02 05:54:29;;;;;;;;;;;21.30;46.20;;;;;;8368058;28;19921;-48
2021/09/02 05:58:29;;;;;;;;;;;21.20;46.20;;;;;;8367406;28;19924;-52
2021/09/02 06:02:30;;;;;;;;;;;21.20;46.20;;;;;;8368522;28;19937;-49
2021/09/02 06:06:30;;;;;;;;;;;21.20;46.20;;;;;;8367664;28;20012;-48
2021/09/02 06:10:34;;;;;;;;;;;21.20;46.20;;;;;;8366884;28;19983;-49
2021/09/02 06:14:34;;;;;;;;;;;21.20;46.20;;;;;;8367500;28;19997;-52
2021/09/02 06:18:35;;;;;;;;;;;21.20;46.20;;;;;;8367878;28;20452;-52
2021/09/02 06:22:35;;;;;;;;;;;21.20;46.20;;;;;;8366613;28;19921;-49
2021/09/02 06:26:36;;;;;;;;;;;21.20;46.10;;;;;;8366916;28;19935;-49
2021/09/02 06:30:36;;;;;;;;;;;21.30;46.20;;;;;;8366719;28;19920;-48
2021/09/02 06:34:37;;;;;;;;;;;21.30;46.10;;;;;;8366264;28;19924;-48
2021/09/02 06:38:37;;;;;;;;;;;21.30;46.10;;;;;;8367343;28;20335;-49
2021/09/02 06:42:38;;;;;;;;;;;21.20;46.00;;;;;;8366544;28;19921;-48
2021/09/02 06:46:38;;;;;;;;;;;21.30;46.00;;;;;;8366154;28;19970;-48
2021/09/02 06:50:39;;;;;;;;;;;21.30;46.00;;;;;;8365948;28;20332;-52
2021/09/02 06:54:39;;;;;;;;;;;21.30;46.00;;;;;;8366869;28;19913;-49
2021/09/02 06:58:40;;;;;;;;;;;21.30;46.00;;;;;;8364838;28;19917;-48
2021/09/02 07:02:40;;;;;;;;;;;21.30;46.00;;;;;;8365905;28;19923;-51
2021/09/02 07:06:41;;;;;;;;;;;21.30;46.00;;;;;;8365494;28;19940;-49
2021/09/02 07:10:41;;;;;;;;;;;21.30;46.00;;;;;;8366371;28;19928;-49
2021/09/02 07:14:42;;;;;;;;;;;21.30;46.00;;;;;;8365740;28;19921;-48
2021/09/02 07:18:42;;;;;;;;;;;21.30;46.00;;;;;;8365470;28;19917;-49
2021/09/02 07:22:43;;;;;;;;;;;21.30;46.10;;;;;;8364916;28;19916;-49
2021/09/02 07:26:43;;;;;;;;;;;21.30;46.10;;;;;;8365298;28;20011;-48
2021/09/02 07:30:44;;;;;;;;;;;21.30;46.10;;;;;;8364636;28;19923;-47
2021/09/02 07:34:45;;;;;;;;;;;21.40;46.10;;;;;;8363324;28;19924;-51
2021/09/02 07:38:45;;;;;;;;;;;21.40;46.00;;;;;;8363580;28;19979;-50
2021/09/02 07:42:46;;;;;;;;;;;21.40;46.00;;;;;;8362777;28;20334;-49
2021/09/02 07:46:47;;;;;;;;;;;21.40;46.00;;;;;;8363805;28;19917;-48
2021/09/02 07:50:47;;;;;;;;;;;21.40;46.10;;;;;;8362992;28;20334;-48
2021/09/02 07:54:47;;;;;;;;;;;21.40;46.10;;;;;;8362372;28;20022;-49
2021/09/02 07:58:48;;;;;;;;;;;21.30;46.10;;;;;;8363331;28;19917;-48
2021/09/02 08:02:48;;;;;;;;;;;21.30;46.10;;;;;;8362760;28;19917;-48
2021/09/02 08:06:49;;;;;;;;;;;21.40;46.20;;;;;;8362726;28;19992;-50
2021/09/02 08:10:49;;;;;;;;;;;21.40;46.30;;;;;;8363029;28;19920;-48
2021/09/02 08:14:50;;;;;;;;;;;21.40;46.20;;;;;;8362901;28;19917;-50
2021/09/02 08:18:51;;;;;;;;;;;21.40;46.30;;;;;;8361955;28;19924;-50
2021/09/02 08:22:51;;;;;;;;;;;21.40;46.30;;;;;;8362778;28;19923;-48
2021/09/02 08:26:53;;;;;;;;;;;21.40;46.20;;;;;;8362066;28;20004;-48
2021/09/02 08:30:54;;;;;;;;;;;21.40;46.20;;;;;;8361554;28;19921;-47
2021/09/02 08:34:55;;;;;;;;;;;21.50;46.30;;;;;;8362052;28;19917;-49
2021/09/02 08:38:55;;;;;;;;;;;21.40;46.20;;;;;;8362436;28;20327;-49
2021/09/02 08:42:56;;;;;;;;;;;21.50;46.30;;;;;;8361227;28;20207;-49
2021/09/02 08:46:56;;;;;;;;;;;21.50;46.30;;;;;;8361877;28;19974;-52
2021/09/02 08:50:57;;;;;;;;;;;21.50;46.30;;;;;;8361781;28;20361;-48
2021/09/02 08:54:58;;;;;;;;;;;21.50;46.30;;;;;;8361062;28;19917;-48
2021/09/02 08:58:58;;;;;;;;;;;21.50;46.30;;;;;;8362639;28;20389;-51
2021/09/02 09:03:00;;;;;;;;;;;21.50;46.30;;;;;;8361285;28;19917;-48
2021/09/02 09:07:01;;;;;;;;;;;21.50;46.30;;;;;;8361024;28;19944;-50
2021/09/02 09:11:21;;;;;;;;;;;21.50;46.30;;;;;;8361213;28;19928;-49
2021/09/02 09:15:23;;;;;;;;;;;21.60;46.30;;;;;;8362031;28;19917;-49
2021/09/02 09:19:35;;;;;;;;;;;21.60;46.30;;;;;;8360987;28;20322;-47
2021/09/02 09:23:54;;;;;;;;;;;21.60;46.30;;;;;;8365989;28;20476;-52
2021/09/02 09:27:59;;;;;;;;;;;21.60;46.30;;;;;;8368433;28;19939;-50
2021/09/02 09:32:10;;;;;;;;;;;21.60;46.30;;;;;;8369079;28;19951;-48
2021/09/02 09:36:11;;;;;;;;;;;21.60;46.30;;;;;;8369347;28;19991;-48
2021/09/02 09:40:16;;;;;;;;;;;21.70;46.30;;;;;;8368094;28;20293;-49
2021/09/02 09:44:16;;;;;;;;;;;21.70;46.30;;;;;;8368629;28;20311;-49
2021/09/02 09:48:17;;;;;;;;;;;21.70;46.30;;;;;;8367287;28;19924;-49
2021/09/02 09:52:19;;;;;;;;;;;21.70;46.30;;;;;;8367616;28;19937;-48
2021/09/02 09:56:20;;;;;;;;;;;21.70;46.50;;;;;;8368613;28;19959;-50
2021/09/02 10:00:21;;;;;;;;;;;21.80;46.30;;;;;;8367806;28;19970;-49
2021/09/02 10:04:21;;;;;;;;;;;21.80;46.30;;;;;;8367298;28;20346;-50
2021/09/02 10:08:21;;;;;;;;;;;21.80;46.30;;;;;;8367739;28;20365;-47
2021/09/02 10:12:23;;;;;;;;;;;21.80;46.20;;;;;;8368205;28;19925;-48
2021/09/02 10:16:24;;;;;;;;;;;21.90;46.30;;;;;;8366913;28;19963;-52
2021/09/02 10:20:26;;;;;;;;;;;21.90;46.20;;;;;;8367536;28;19970;-49
2021/09/02 10:24:35;;;;;;;;;;;21.90;46.20;;;;;;8367190;28;19940;-49
2021/09/02 10:28:36;;;;;;;;;;;21.90;46.20;;;;;;8366716;28;19963;-51
2021/09/02 10:32:37;;;;;;;;;;;22.00;46.20;;;;;;8366818;28;19929;-49
2021/09/02 10:36:38;;;;;;;;;;;22.00;46.20;;;;;;8366665;28;19925;-48
2021/09/02 10:40:38;;;;;;;;;;;22.00;46.20;;;;;;8366467;28;19928;-49
2021/09/02 10:44:50;;;;;;;;;;;22.00;46.20;;;;;;8366550;28;19963;-48
2021/09/02 10:48:50;;;;;;;;;;;22.00;46.20;;;;;;8366762;28;19919;-51
2021/09/02 10:52:51;;;;;;;;;;;22.00;46.20;;;;;;8366109;28;20461;-48
2021/09/02 10:56:51;;;;;;;;;;;22.10;46.10;;;;;;8366098;28;19962;-48
2021/09/02 11:00:52;;;;;;;;;;;22.10;46.10;;;;;;8365469;28;19921;-52
2021/09/02 11:04:58;;;;;;;;;;;22.10;46.00;;;;;;8365867;28;19913;-48
2021/09/02 11:09:00;;;;;;;;;;;22.10;46.00;;;;;;8367091;28;19995;-49
2021/09/02 11:13:03;;;;;;;;;;;22.20;46.10;;;;;;8365128;28;20373;-49
2021/09/02 11:17:07;;;;;;;;;;;22.20;46.00;;;;;;8365654;28;19917;-52
2021/09/02 11:21:27;;;;;;;;;;;22.20;46.10;;;;;;8365461;28;19920;-50
2021/09/02 11:25:28;;;;;;;;;;;22.20;46.10;;;;;;8365048;28;19995;-49
2021/09/02 11:29:28;;;;;;;;;;;22.20;46.00;;;;;;8365213;28;19920;-48
2021/09/02 11:33:29;;;;;;;;;;;22.20;46.00;;;;;;8364858;28;19932;-49
2021/09/02 11:37:36;;;;;;;;;;;22.20;46.00;;;;;;8364349;28;19952;-51
2021/09/02 11:41:36;;;;;;;;;;;22.20;46.00;;;;;;8365163;28;19929;-49
2021/09/02 11:45:37;;;;;;;;;;;22.30;46.00;;;;;;8365166;28;20338;-48
2021/09/02 11:49:39;;;;;;;;;;;22.30;46.00;;;;;;8364175;28;19917;-48
2021/09/02 11:53:39;;;;;;;;;;;22.30;46.10;;;;;;8364675;28;20019;-49
2021/09/02 11:57:39;;;;;;;;;;;22.30;46.00;;;;;;8364654;28;20297;-47
2021/09/02 12:01:41;;;;;;;;;;;22.40;46.10;;;;;;8364432;28;19988;-48
2021/09/02 12:05:46;;;;;;;;;;;22.40;46.10;;;;;;8364043;28;20385;-48
2021/09/02 12:09:50;;;;;;;;;;;22.40;46.10;;;;;;8363916;28;20436;-48
2021/09/02 12:13:54;;;;;;;;;;;22.40;46.10;;;;;;8364197;28;19925;-51
2021/09/02 12:18:10;;;;;;;;;;;22.40;46.10;;;;;;8363729;28;19947;-49
2021/09/02 12:22:11;;;;;;;;;;;22.40;46.00;;;;;;8364025;28;20285;-52
2021/09/02 12:26:13;;;;;;;;;;;22.50;46.10;;;;;;8363804;28;19916;-48
2021/09/02 12:30:14;;;;;;;;;;;22.50;46.10;;;;;;8363427;28;20020;-50
2021/09/02 12:34:22;;;;;;;;;;;22.50;46.10;;;;;;8363133;28;20365;-49
2021/09/02 12:38:38;;;;;;;;;;;22.50;46.10;;;;;;8363820;28;19913;-48
2021/09/02 12:42:38;;;;;;;;;;;22.50;46.10;;;;;;8364198;28;19968;-52
2021/09/02 12:46:49;;;;;;;;;;;22.50;46.00;;;;;;8362676;28;19970;-47
2021/09/02 12:50:50;;;;;;;;;;;22.50;46.10;;;;;;8363343;28;20285;-48
2021/09/02 12:55:04;;;;;;;;;;;22.60;46.10;;;;;;8362515;28;19921;-48
2021/09/02 12:59:05;;;;;;;;;;;22.50;46.00;;;;;;8369809;28;19949;-51
2021/09/02 13:03:06;;;;;;;;;;;22.60;46.10;;;;;;8369696;28;19928;-48
2021/09/02 13:07:06;;;;;;;;;;;22.60;46.10;;;;;;8369158;28;19917;-50
2021/09/02 13:11:07;;;;;;;;;;;22.60;46.00;;;;;;8369364;28;20019;-48
2021/09/02 13:15:08;;;;;;;;;;;22.60;46.10;;;;;;8369490;28;19927;-48
2021/09/02 13:19:08;;;;;;;;;;;22.60;46.00;;;;;;8369562;28;19912;-49
2021/09/02 13:23:08;;;;;;;;;;;22.60;46.00;;;;;;8369528;28;19917;-48
2021/09/02 13:27:09;;;;;;;;;;;22.70;46.00;;;;;;8369112;28;19924;-47
2021/09/02 13:31:09;;;;;;;;;;;22.70;46.00;;;;;;8368507;28;19947;-48
2021/09/02 13:35:10;;;;;;;;;;;22.70;46.00;;;;;;8369546;28;19913;-51
2021/09/02 13:39:11;;;;;;;;;;;22.70;46.00;;;;;;8368827;28;19918;-48
2021/09/02 13:43:11;;;;;;;;;;;22.70;46.10;;;;;;8368020;28;20015;-49
2021/09/02 13:47:12;;;;;;;;;;;22.70;46.00;;;;;;8368719;28;20365;-48
2021/09/02 13:51:13;;;;;;;;;;;22.70;46.00;;;;;;8368694;28;19917;-52
2021/09/02 13:55:14;;;;;;;;;;;22.70;45.90;;;;;;8368367;28;19991;-48
2021/09/02 13:59:15;;;;;;;;;;;22.70;46.00;;;;;;8368542;28;20290;-48
2021/09/02 14:03:15;;;;;;;;;;;22.70;46.00;;;;;;8368382;28;19955;-48
2021/09/02 14:07:16;;;;;;;;;;;22.70;46.00;;;;;;8367394;28;19917;-47
2021/09/02 14:11:16;;;;;;;;;;;22.80;46.00;;;;;;8368376;28;19925;-51
2021/09/02 14:15:17;;;;;;;;;;;22.80;46.00;;;;;;8367688;28;20000;-48
2021/09/02 14:19:17;;;;;;;;;;;22.80;46.00;;;;;;8367374;28;20435;-50
2021/09/02 14:23:18;;;;;;;;;;;22.80;46.00;;;;;;8367294;28;19917;-47
2021/09/02 14:27:18;;;;;;;;;;;22.80;46.00;;;;;;8367974;28;20281;-48
2021/09/02 14:31:19;;;;;;;;;;;22.80;45.90;;;;;;8366545;28;19925;-52
2021/09/02 14:35:19;;;;;;;;;;;22.80;45.90;;;;;;8366942;28;19921;-47
2021/09/02 14:39:20;;;;;;;;;;;22.80;46.00;;;;;;8366749;28;19947;-47
2021/09/02 14:43:20;;;;;;;;;;;22.90;46.00;;;;;;8366361;28;19913;-50
2021/09/02 14:47:21;;;;;;;;;;;22.80;45.90;;;;;;8367549;28;20384;-48
2021/09/02 14:51:21;;;;;;;;;;;22.80;45.90;;;;;;8366490;28;20020;-52
2021/09/02 14:55:22;;;;;;;;;;;22.90;46.00;;;;;;8365842;28;19924;-49
2021/09/02 14:59:22;;;;;;;;;;;22.90;45.90;;;;;;8366596;28;19917;-48
2021/09/02 15:03:23;;;;;;;;;;;22.90;45.90;;;;;;8367011;28;19959;-52
2021/09/02 15:07:23;;;;;;;;;;;22.90;45.90;;;;;;8365528;28;20399;-48
2021/09/02 15:11:24;;;;;;;;;;;22.90;45.90;;;;;;8365620;28;19968;-51
2021/09/02 15:15:26;;;;;;;;;;;22.90;45.90;;;;;;8365720;28;20003;-48
2021/09/02 15:19:26;;;;;;;;;;;22.90;45.90;;;;;;8365437;28;19995;-49
2021/09/02 15:23:27;;;;;;;;;;;22.90;45.90;;;;;;8365405;28;20397;-49
2021/09/02 15:27:27;;;;;;;;;;;22.90;45.90;;;;;;8365296;28;19963;-47
2021/09/02 15:31:29;;;;;;;;;;;22.90;45.80;;;;;;8364660;28;19932;-50
2021/09/02 15:35:29;;;;;;;;;;;22.90;45.80;;;;;;8365176;28;19919;-48
2021/09/02 15:39:29;;;;;;;;;;;22.90;45.80;;;;;;8365688;28;20293;-47
2021/09/02 15:43:30;;;;;;;;;;;22.90;45.80;;;;;;8364100;28;20012;-48
2021/09/02 15:47:31;;;;;;;;;;;22.90;45.80;;;;;;8364950;28;19940;-47
2021/09/02 15:51:32;;;;;;;;;;;22.90;45.80;;;;;;8364519;28;19956;-48
2021/09/02 15:55:32;;;;;;;;;;;22.90;45.90;;;;;;8364774;28;19917;-48
2021/09/02 15:59:33;;;;;;;;;;;22.90;45.80;;;;;;8364258;28;19917;-47
2021/09/02 16:03:33;;;;;;;;;;;22.90;45.80;;;;;;8364469;28;19917;-48
2021/09/02 16:07:33;;;;;;;;;;;23.00;45.90;;;;;;8363716;28;20419;-48
2021/09/02 16:11:34;;;;;;;;;;;22.90;45.80;;;;;;8364669;28;19947;-48
2021/09/02 16:15:35;;;;;;;;;;;23.00;45.80;;;;;;8363897;28;20047;-48
2021/09/02 16:19:36;;;;;;;;;;;23.00;45.80;;;;;;8363511;28;20343;-48
2021/09/02 16:23:37;;;;;;;;;;;22.90;46.30;;;;;;8363824;28;19967;-47
2021/09/02 16:27:37;;;;;;;;;;;22.90;45.80;;;;;;8363799;28;19916;-48
2021/09/02 16:31:38;;;;;;;;;;;23.00;45.80;;;;;;8362802;28;19998;-48
2021/09/02 16:35:39;;;;;;;;;;;23.00;45.80;;;;;;8363323;28;19920;-50
2021/09/02 16:39:39;;;;;;;;;;;23.00;45.80;;;;;;8363169;28;19917;-47
2021/09/02 16:43:40;;;;;;;;;;;22.90;45.70;;;;;;8362813;28;19923;-48
2021/09/02 16:47:41;;;;;;;;;;;23.00;45.80;;;;;;8363984;28;20421;-49
2021/09/02 16:51:41;;;;;;;;;;;23.00;45.80;;;;;;8363041;28;20289;-47
2021/09/02 16:55:41;;;;;;;;;;;23.00;45.80;;;;;;8362665;28;19917;-48
2021/09/02 16:59:42;;;;;;;;;;;22.90;45.70;;;;;;8362999;28;19917;-48
2021/09/02 17:03:42;;;;;;;;;;;23.00;45.70;;;;;;8363193;28;19966;-48
2021/09/02 17:07:43;;;;;;;;;;;22.90;45.70;;;;;;8363039;28;19924;-48
2021/09/02 17:11:43;;;;;;;;;;;23.00;45.80;;;;;;8363035;28;19931;-48
2021/09/02 17:15:44;;;;;;;;;;;22.90;45.70;;;;;;8362980;28;20392;-48
2021/09/02 17:19:46;;;;;;;;;;;22.90;45.70;;;;;;8362670;28;19923;-49
2021/09/02 17:23:47;;;;;;;;;;;23.00;45.80;;;;;;8363416;28;20400;-48
2021/09/02 17:27:47;;;;;;;;;;;23.00;45.80;;;;;;8362195;28;19917;-50
2021/09/02 17:31:48;;;;;;;;;;;23.00;45.80;;;;;;8362524;28;19925;-51
2021/09/02 17:35:48;;;;;;;;;;;23.00;45.80;;;;;;8362474;28;20357;-48
2021/09/02 17:39:49;;;;;;;;;;;23.00;45.80;;;;;;8362818;28;19912;-51
2021/09/02 17:43:50;;;;;;;;;;;22.90;45.80;;;;;;8365968;28;19917;-49
2021/09/02 17:47:51;;;;;;;;;;;22.90;45.80;;;;;;8368501;28;19917;-48
2021/09/02 17:51:51;;;;;;;;;;;22.90;45.80;;;;;;8367918;28;19924;-47
2021/09/02 17:55:52;;;;;;;;;;;22.90;45.80;;;;;;8368596;28;19967;-51
2021/09/02 17:59:52;;;;;;;;;;;22.90;45.80;;;;;;8368738;28;19920;-49
2021/09/02 18:03:52;;;;;;;;;;;22.90;45.80;;;;;;8367569;28;20034;-49
2021/09/02 18:07:53;;;;;;;;;;;22.90;45.80;;;;;;8367890;28;19921;-48
2021/09/02 18:11:53;;;;;;;;;;;22.90;45.80;;;;;;8367441;28;20374;-48
2021/09/02 18:15:54;;;;;;;;;;;22.90;45.80;;;;;;8367804;28;19913;-48
2021/09/02 18:19:55;;;;;;;;;;;22.90;45.80;;;;;;8367544;28;19971;-49
2021/09/02 18:23:55;;;;;;;;;;;22.90;45.80;;;;;;8367512;28;19963;-48
2021/09/02 18:27:56;;;;;;;;;;;22.90;45.80;;;;;;8366777;28;19970;-47
2021/09/02 18:31:56;;;;;;;;;;;22.90;45.80;;;;;;8367783;28;19978;-48
2021/09/02 18:35:57;;;;;;;;;;;22.90;45.80;;;;;;8366907;28;19921;-50
2021/09/02 18:39:57;;;;;;;;;;;22.90;45.80;;;;;;8366225;28;19917;-48
2021/09/02 18:43:59;;;;;;;;;;;22.90;45.80;;;;;;8367149;28;19917;-48
2021/09/02 18:48:03;;;;;;;;;;;22.90;45.80;;;;;;8366495;28;19921;-48
2021/09/02 18:52:04;;;;;;;;;;;22.90;45.80;;;;;;8366603;28;20078;-50
2021/09/02 18:56:05;;;;;;;;;;;22.90;45.80;;;;;;8365447;28;20350;-48
2021/09/02 19:00:06;;;;;;;;;;;22.90;45.80;;;;;;8366148;28;19917;-51
2021/09/02 19:04:07;;;;;;;;;;;22.90;45.80;;;;;;8365889;28;20392;-52
2021/09/02 19:08:08;;;;;;;;;;;22.80;45.80;;;;;;8367318;28;20066;-52
2021/09/02 19:12:08;;;;;;;;;;;22.90;45.80;;;;;;8365683;28;19924;-46
2021/09/02 19:16:09;;;;;;;;;;;22.90;45.80;;;;;;8365270;28;19921;-47
2021/09/02 19:20:09;;;;;;;;;;;22.90;45.80;;;;;;8365597;28;20019;-47
2021/09/02 19:24:10;;;;;;;;;;;22.90;45.80;;;;;;8365694;28;19913;-47
2021/09/02 19:28:12;;;;;;;;;;;22.80;45.70;;;;;;8365600;28;19920;-48
2021/09/02 19:32:14;;;;;;;;;;;22.80;45.80;;;;;;8365321;28;20351;-47
2021/09/02 19:36:16;;;;;;;;;;;22.80;45.80;;;;;;8365267;28;20297;-49
2021/09/02 19:40:17;;;;;;;;;;;22.80;45.80;;;;;;8364548;28;19917;-49
2021/09/02 19:44:20;;;;;;;;;;;22.80;45.80;;;;;;8366103;28;20396;-50
2021/09/02 19:48:21;;;;;;;;;;;22.80;45.80;;;;;;8364796;28;20266;-49
2021/09/02 19:52:22;;;;;;;;;;;22.80;45.70;;;;;;8364203;28;19925;-48
2021/09/02 19:56:28;;;;;;;;;;;22.80;45.80;;;;;;8364462;28;19917;-48
2021/09/02 20:00:30;;;;;;;;;;;22.80;45.80;;;;;;8364671;28;19913;-48
2021/09/02 20:04:33;;;;;;;;;;;22.80;45.80;;;;;;8364384;28;19913;-50
2021/09/02 20:08:36;;;;;;;;;;;22.80;45.80;;;;;;8363958;28;19921;-49
2021/09/02 20:12:39;;;;;;;;;;;22.80;45.80;;;;;;8363903;28;19931;-48
2021/09/02 20:16:40;;;;;;;;;;;22.80;45.80;;;;;;8363290;28;20289;-49
2021/09/02 20:20:40;;;;;;;;;;;22.80;45.80;;;;;;8364668;28;19996;-48
2021/09/02 20:24:41;;;;;;;;;;;22.80;45.80;;;;;;8363588;28;19961;-51
2021/09/02 20:28:42;;;;;;;;;;;22.80;45.80;;;;;;8363120;28;19917;-51
2021/09/02 20:32:42;;;;;;;;;;;22.80;45.80;;;;;;8363497;28;20330;-52
2021/09/02 20:37:02;;;;;;;;;;;22.70;45.80;;;;;;8364193;28;19912;-50
2021/09/02 20:41:06;;;;;;;;;;;22.80;45.90;;;;;;8341761;28;19924;-50
2021/09/02 20:45:10;;;;;;;;;;;22.80;45.90;;;;;;8363539;28;20031;-49
2021/09/02 20:49:17;;;;;;;;;;;22.80;45.90;;;;;;8362833;28;19923;-48
2021/09/02 20:53:19;;;;;;;;;;;22.80;45.90;;;;;;8363070;28;20305;-49
2021/09/02 20:57:21;;;;;;;;;;;22.70;45.80;;;;;;8363913;28;19913;-50
2021/09/02 21:01:21;;;;;;;;;;;22.70;45.90;;;;;;8362530;28;19917;-49
2021/09/02 21:05:23;;;;;;;;;;;22.70;45.90;;;;;;8363155;28;19921;-49
2021/09/02 21:09:24;;;;;;;;;;;22.70;45.80;;;;;;8363010;28;20439;-49
2021/09/02 21:13:25;;;;;;;;;;;22.70;45.90;;;;;;8362479;28;20281;-49
2021/09/02 21:17:25;;;;;;;;;;;22.70;45.90;;;;;;8364452;28;19944;-51
2021/09/02 21:21:26;;;;;;;;;;;22.70;45.90;;;;;;8369210;28;19940;-49
2021/09/02 21:25:30;;;;;;;;;;;22.70;45.90;;;;;;8368832;28;20262;-48
2021/09/02 21:29:32;;;;;;;;;;;22.70;45.90;;;;;;8369386;28;20004;-48
2021/09/02 21:33:51;;;;;;;;;;;22.70;45.90;;;;;;8369553;28;19921;-49
2021/09/02 21:37:53;;;;;;;;;;;22.70;46.40;;;;;;8344837;28;20007;-48
2021/09/02 21:41:57;;;;;;;;;;;22.70;45.90;;;;;;8368904;28;20356;-49
2021/09/02 21:45:59;;;;;;;;;;;22.70;45.90;;;;;;8368025;28;19917;-51
2021/09/02 21:50:01;;;;;;;;;;;22.60;45.80;;;;;;8368811;28;19912;-47
2021/09/02 21:54:03;;;;;;;;;;;22.60;45.90;;;;;;8369212;28;19921;-48
2021/09/02 21:58:04;;;;;;;;;;;22.70;45.90;;;;;;8367602;28;19956;-48
2021/09/02 22:02:04;;;;;;;;;;;22.60;45.90;;;;;;8367659;28;19938;-50
2021/09/02 22:06:05;;;;;;;;;;;22.60;45.90;;;;;;8367908;28;19924;-47
2021/09/02 22:10:05;;;;;;;;;;;22.60;46.40;;;;;;8368356;28;20285;-50
2021/09/02 22:14:07;;;;;;;;;;;22.60;45.90;;;;;;8367612;28;19929;-49
2021/09/02 22:18:21;;;;;;;;;;;22.60;46.00;;;;;;8367544;28;19921;-52
2021/09/02 22:22:24;;;;;;;;;;;22.60;46.00;;;;;;8366966;28;19916;-49
2021/09/02 22:26:26;;;;;;;;;;;22.60;46.00;;;;;;8367364;28;19928;-49
2021/09/02 22:30:27;;;;;;;;;;;22.60;45.90;;;;;;8367806;28;19963;-49
2021/09/02 22:34:32;;;;;;;;;;;22.60;45.90;;;;;;8366664;28;19950;-48
2021/09/02 22:38:33;;;;;;;;;;;22.60;46.00;;;;;;8367057;28;20374;-48
2021/09/02 22:42:34;;;;;;;;;;;22.60;46.00;;;;;;8366825;28;19920;-48
2021/09/02 22:46:35;;;;;;;;;;;22.60;46.00;;;;;;8367034;28;19917;-49
2021/09/02 22:50:36;;;;;;;;;;;22.60;46.00;;;;;;8366759;28;19917;-49
2021/09/02 22:54:36;;;;;;;;;;;22.50;45.90;;;;;;8366496;28;19924;-48
2021/09/02 22:58:38;;;;;;;;;;;22.60;46.00;;;;;;8365852;28;19921;-47
2021/09/02 23:02:39;;;;;;;;;;;22.50;45.90;;;;;;8366086;28;19921;-48
2021/09/02 23:06:42;;;;;;;;;;;22.50;46.00;;;;;;8366863;28;19963;-48
2021/09/02 23:10:43;;;;;;;;;;;22.50;46.00;;;;;;8366065;28;19921;-50
2021/09/02 23:14:47;;;;;;;;;;;22.50;46.00;;;;;;8366011;28;19921;-48
2021/09/02 23:18:48;;;;;;;;;;;22.50;46.00;;;;;;8365375;28;19921;-53
2021/09/02 23:22:48;;;;;;;;;;;22.50;46.00;;;;;;8366155;28;19968;-48